createdAt,value
2022-07-27T00:01:51.704Z,17.80
2022-07-27T00:04:20.000Z,17.80
2022-07-27T00:06:48.287Z,17.80
2022-07-27T00:09:16.101Z,17.80
2022-07-27T00:11:43.123Z,17.70
2022-07-27T00:14:09.943Z,17.60
2022-07-27T00:16:37.010Z,17.50
2022-07-27T00:19:04.601Z,17.50
2022-07-27T00:21:39.978Z,17.30
2022-07-27T00:24:12.199Z,17.20
2022-07-27T00:26:39.085Z,17.20
2022-07-27T00:29:06.129Z,17.10
2022-07-27T00:31:33.114Z,17.10
2022-07-27T00:34:00.041Z,17.10
2022-07-27T00:36:26.962Z,17.00
2022-07-27T00:38:53.919Z,17.00
2022-07-27T00:41:20.770Z,17.00
2022-07-27T00:44:00.899Z,17.00
2022-07-27T00:46:29.054Z,17.00
2022-07-27T00:48:56.060Z,17.00
2022-07-27T00:51:24.662Z,17.00
2022-07-27T00:53:55.785Z,16.90
2022-07-27T00:56:23.165Z,16.90
2022-07-27T00:58:53.600Z,16.80
2022-07-27T01:01:21.510Z,16.80
2022-07-27T01:03:48.453Z,16.80
2022-07-27T01:06:16.608Z,16.80
2022-07-27T01:09:14.344Z,16.80
2022-07-27T01:11:41.684Z,16.80
2022-07-27T01:14:09.068Z,16.70
2022-07-27T01:16:35.960Z,16.70
2022-07-27T01:19:02.901Z,16.60
2022-07-27T01:21:35.178Z,16.60
2022-07-27T01:24:02.653Z,16.60
2022-07-27T01:26:30.129Z,16.60
2022-07-27T01:28:59.391Z,16.60
2022-07-27T01:31:27.213Z,16.70
2022-07-27T01:33:54.207Z,16.70
2022-07-27T01:36:21.069Z,16.60
2022-07-27T01:38:48.321Z,16.60
2022-07-27T01:41:15.149Z,16.50
2022-07-27T01:43:42.066Z,16.50
2022-07-27T01:46:09.155Z,16.50
2022-07-27T01:48:36.145Z,16.50
2022-07-27T01:51:03.017Z,16.50
2022-07-27T01:53:29.858Z,16.60
2022-07-27T01:55:56.690Z,16.60
2022-07-27T01:58:23.579Z,16.60
2022-07-27T02:00:50.738Z,16.60
2022-07-27T02:03:17.649Z,16.70
2022-07-27T02:05:44.528Z,16.70
2022-07-27T02:08:11.466Z,16.60
2022-07-27T02:10:58.448Z,16.50
2022-07-27T02:13:26.429Z,16.50
2022-07-27T02:15:54.633Z,16.40
2022-07-27T02:18:33.719Z,16.20
2022-07-27T02:21:04.640Z,16.10
2022-07-27T02:23:31.964Z,16.00
2022-07-27T02:25:59.173Z,16.10
2022-07-27T02:28:25.992Z,16.10
2022-07-27T02:30:52.935Z,16.10
2022-07-27T02:33:20.107Z,16.20
2022-07-27T02:35:47.074Z,16.10
2022-07-27T02:38:13.921Z,16.10
2022-07-27T02:40:41.151Z,16.20
2022-07-27T02:43:07.975Z,16.20
2022-07-27T02:45:34.852Z,16.20
2022-07-27T02:48:01.868Z,16.30
2022-07-27T02:50:28.745Z,16.30
2022-07-27T02:52:55.674Z,16.30
2022-07-27T02:55:22.528Z,16.30
2022-07-27T02:57:49.362Z,16.40
2022-07-27T03:00:16.894Z,16.40
2022-07-27T03:02:48.482Z,16.30
2022-07-27T03:05:15.738Z,16.30
2022-07-27T03:07:42.551Z,16.30
2022-07-27T03:10:09.454Z,16.30
2022-07-27T03:12:36.356Z,16.40
2022-07-27T03:15:03.928Z,16.40
2022-07-27T03:17:30.772Z,16.50
2022-07-27T03:19:57.600Z,16.50
2022-07-27T03:22:24.417Z,16.50
2022-07-27T03:24:51.287Z,16.60
2022-07-27T03:27:18.167Z,16.60
2022-07-27T03:29:45.825Z,16.60
2022-07-27T03:32:12.728Z,16.70
2022-07-27T03:34:39.546Z,16.70
2022-07-27T03:37:06.379Z,16.60
2022-07-27T03:39:33.230Z,16.70
2022-07-27T03:42:00.129Z,16.70
2022-07-27T03:44:27.001Z,16.70
2022-07-27T03:46:53.867Z,16.80
2022-07-27T03:49:20.815Z,16.80
2022-07-27T03:51:47.733Z,16.70
2022-07-27T03:54:14.656Z,16.80
2022-07-27T03:56:41.569Z,16.80
2022-07-27T03:59:08.730Z,16.90
2022-07-27T04:01:36.023Z,16.80
2022-07-27T04:04:02.902Z,16.60
2022-07-27T04:06:29.704Z,16.30
2022-07-27T04:09:07.830Z,16.20
2022-07-27T04:11:37.790Z,16.30
2022-07-27T04:14:12.833Z,16.40
2022-07-27T04:16:41.327Z,16.40
2022-07-27T04:19:08.616Z,16.40
2022-07-27T04:21:35.642Z,16.50
2022-07-27T04:24:02.894Z,16.60
2022-07-27T04:26:29.802Z,16.70
2022-07-27T04:28:56.735Z,16.70
2022-07-27T04:31:24.274Z,16.70
2022-07-27T04:33:51.430Z,16.80
2022-07-27T04:36:18.456Z,16.80
2022-07-27T04:38:45.304Z,16.80
2022-07-27T04:41:12.832Z,16.90
2022-07-27T04:43:39.856Z,16.90
2022-07-27T04:46:09.527Z,17.00
2022-07-27T04:48:40.123Z,17.00
2022-07-27T04:51:08.316Z,17.20
2022-07-27T04:53:36.950Z,17.30
2022-07-27T04:56:20.245Z,17.30
2022-07-27T04:58:47.609Z,17.50
2022-07-27T05:01:14.685Z,17.60
2022-07-27T05:03:43.064Z,17.50
2022-07-27T05:06:10.063Z,17.50
2022-07-27T05:08:36.929Z,17.60
2022-07-27T05:11:03.810Z,17.70
2022-07-27T05:13:33.119Z,17.80
2022-07-27T05:15:59.985Z,17.80
2022-07-27T05:18:26.865Z,17.80
2022-07-27T05:20:53.819Z,17.80
2022-07-27T05:23:20.652Z,17.90
2022-07-27T05:25:47.564Z,18.10
2022-07-27T05:28:14.533Z,18.20
2022-07-27T05:30:41.444Z,18.30
2022-07-27T05:33:08.267Z,18.30
2022-07-27T05:35:35.092Z,18.50
2022-07-27T05:38:01.898Z,18.50
2022-07-27T05:40:28.968Z,18.50
2022-07-27T05:42:56.269Z,18.50
2022-07-27T05:45:23.335Z,18.70
2022-07-27T05:47:50.224Z,19.00
2022-07-27T05:50:18.367Z,19.20
2022-07-27T05:52:45.211Z,19.30
2022-07-27T05:55:12.746Z,19.40
2022-07-27T05:57:43.824Z,19.60
2022-07-27T06:00:12.054Z,19.80
2022-07-27T06:02:39.878Z,19.70
2022-07-27T06:05:11.801Z,19.80
2022-07-27T06:07:59.760Z,20.00
2022-07-27T06:10:32.220Z,20.10
2022-07-27T06:13:00.430Z,20.20
2022-07-27T06:15:27.513Z,20.20
2022-07-27T06:17:54.709Z,20.40
2022-07-27T06:20:23.662Z,20.30
2022-07-27T06:22:54.192Z,20.10
2022-07-27T06:25:22.934Z,20.20
2022-07-27T06:28:00.765Z,20.30
2022-07-27T06:30:27.697Z,20.50
2022-07-27T06:32:54.558Z,20.50
2022-07-27T06:35:23.338Z,20.50
2022-07-27T06:37:52.776Z,20.50
2022-07-27T06:40:20.638Z,20.60
2022-07-27T06:42:48.435Z,20.60
2022-07-27T06:45:15.512Z,20.80
2022-07-27T06:47:49.031Z,20.90
2022-07-27T06:50:18.830Z,21.00
2022-07-27T06:52:46.798Z,21.10
2022-07-27T06:55:14.337Z,21.20
2022-07-27T06:57:42.737Z,21.30
2022-07-27T07:00:10.829Z,21.40
2022-07-27T07:02:39.689Z,21.40
2022-07-27T07:05:07.000Z,21.40
2022-07-27T07:07:35.064Z,21.60
2022-07-27T07:10:02.133Z,21.90
2022-07-27T07:12:28.976Z,22.30
2022-07-27T07:14:55.796Z,22.60
2022-07-27T07:17:22.625Z,22.60
2022-07-27T07:19:49.512Z,23.10
2022-07-27T07:22:16.326Z,23.20
2022-07-27T07:24:43.160Z,23.40
2022-07-27T07:27:10.003Z,24.00
2022-07-27T07:29:36.825Z,24.30
2022-07-27T07:32:03.882Z,24.40
2022-07-27T07:34:30.724Z,24.70
2022-07-27T07:36:58.127Z,24.80
2022-07-27T07:39:30.859Z,25.00
2022-07-27T07:41:58.560Z,25.20
2022-07-27T07:44:26.234Z,25.60
2022-07-27T07:46:53.109Z,25.80
2022-07-27T07:49:37.721Z,25.50
2022-07-27T07:52:07.865Z,25.30
2022-07-27T07:54:34.909Z,25.60
2022-07-27T07:57:01.902Z,25.50
2022-07-27T07:59:28.847Z,25.10
2022-07-27T08:01:55.733Z,24.90
2022-07-27T08:04:22.590Z,24.60
2022-07-27T08:06:49.474Z,24.90
2022-07-27T08:09:21.327Z,25.10
2022-07-27T08:11:48.214Z,24.70
2022-07-27T08:14:15.076Z,24.90
2022-07-27T08:16:42.011Z,25.30
2022-07-27T08:19:09.637Z,25.00
2022-07-27T08:21:36.640Z,25.40
2022-07-27T08:24:03.679Z,25.70
2022-07-27T08:26:30.575Z,25.50
2022-07-27T08:28:57.400Z,25.50
2022-07-27T08:31:51.329Z,26.00
2022-07-27T08:34:13.210Z,26.00
2022-07-27T08:36:40.056Z,26.30
2022-07-27T08:39:08.531Z,26.60
2022-07-27T08:41:42.991Z,26.80
2022-07-27T08:44:14.158Z,26.50
2022-07-27T08:46:45.573Z,26.70
2022-07-27T08:49:14.120Z,26.50
2022-07-27T08:51:46.846Z,26.30
2022-07-27T08:54:14.328Z,26.50
2022-07-27T08:56:41.418Z,27.00
2022-07-27T08:59:08.886Z,27.40
2022-07-27T09:01:36.509Z,27.50
2022-07-27T09:04:03.493Z,27.90
2022-07-27T09:06:54.371Z,28.40
2022-07-27T09:09:22.937Z,28.20
2022-07-27T09:12:09.217Z,28.40
2022-07-27T09:14:40.793Z,28.10
2022-07-27T09:20:19.153Z,27.50
2022-07-27T09:22:55.073Z,28.00
2022-07-27T09:26:00.796Z,28.10
2022-07-27T09:28:30.058Z,28.30
2022-07-27T09:31:13.360Z,28.40
2022-07-27T09:33:50.574Z,28.40
2022-07-27T09:36:19.626Z,28.20
2022-07-27T09:39:06.798Z,27.80
2022-07-27T09:41:52.913Z,27.40
2022-07-27T09:44:53.617Z,27.70
2022-07-27T09:47:28.195Z,27.80
2022-07-27T09:50:18.571Z,27.80
2022-07-27T09:52:46.702Z,27.60
2022-07-27T09:55:14.227Z,27.40
2022-07-27T09:57:58.527Z,27.60
2022-07-27T10:00:26.892Z,28.30
2022-07-27T10:02:55.023Z,28.30
2022-07-27T10:05:23.012Z,28.50
2022-07-27T10:07:52.457Z,28.80
2022-07-27T10:10:21.002Z,28.40
2022-07-27T10:12:54.236Z,28.40
2022-07-27T10:15:23.664Z,28.60
2022-07-27T10:18:01.972Z,28.10
2022-07-27T10:20:29.880Z,28.20
2022-07-27T10:22:58.813Z,28.00
2022-07-27T10:25:32.466Z,27.90
2022-07-27T10:28:17.448Z,28.30
2022-07-27T10:30:48.146Z,28.20
2022-07-27T10:33:46.577Z,28.70
2022-07-27T10:36:31.389Z,29.10
2022-07-27T10:39:02.154Z,28.70
2022-07-27T10:41:39.927Z,29.00
2022-07-27T10:44:18.503Z,28.60
2022-07-27T10:47:03.810Z,29.10
2022-07-27T10:49:40.781Z,29.50
2022-07-27T10:52:41.362Z,29.50
2022-07-27T10:55:09.164Z,30.10
2022-07-27T10:57:38.621Z,30.10
2022-07-27T11:00:13.695Z,30.00
2022-07-27T11:02:43.569Z,28.90
2022-07-27T11:10:49.475Z,28.40
2022-07-27T11:13:23.158Z,28.40
2022-07-27T11:16:09.811Z,28.50
2022-07-27T11:19:03.663Z,28.80
2022-07-27T11:21:37.959Z,29.20
2022-07-27T11:24:17.436Z,29.10
2022-07-27T11:26:47.706Z,28.90
2022-07-27T11:29:17.043Z,28.60
2022-07-27T11:31:56.324Z,28.40
2022-07-27T11:34:36.557Z,28.30
2022-07-27T11:37:13.981Z,27.80
2022-07-27T11:39:59.680Z,27.60
2022-07-27T11:42:40.206Z,27.80
2022-07-27T11:45:07.781Z,28.30
2022-07-27T11:47:35.762Z,28.60
2022-07-27T11:50:11.934Z,28.90
2022-07-27T11:52:39.110Z,29.10
2022-07-27T11:55:07.839Z,29.60
2022-07-27T11:57:36.035Z,30.40
2022-07-27T12:00:05.308Z,30.10
2022-07-27T12:02:32.180Z,30.10
2022-07-27T12:05:02.817Z,30.00
2022-07-27T12:07:32.431Z,30.00
2022-07-27T12:10:04.223Z,29.60
2022-07-27T12:12:32.663Z,29.40
2022-07-27T12:18:06.542Z,29.10
2022-07-27T12:20:35.700Z,29.10
2022-07-27T12:23:08.216Z,28.70
2022-07-27T12:25:36.244Z,28.40
2022-07-27T12:28:17.705Z,28.40
2022-07-27T12:30:51.130Z,28.70
2022-07-27T12:33:39.577Z,29.00
2022-07-27T12:36:08.670Z,28.80
2022-07-27T12:38:51.170Z,28.30
2022-07-27T12:41:30.835Z,27.50
2022-07-27T12:44:12.353Z,27.20
2022-07-27T12:46:59.366Z,27.00
2022-07-27T12:49:28.645Z,26.80
2022-07-27T12:52:06.765Z,27.00
2022-07-27T12:54:34.196Z,27.30
2022-07-27T12:57:01.062Z,27.60
2022-07-27T12:59:27.893Z,28.10
2022-07-27T13:01:55.969Z,28.40
2022-07-27T13:04:23.697Z,28.60
2022-07-27T13:06:50.559Z,28.60
2022-07-27T13:09:17.779Z,28.10
2022-07-27T13:11:47.911Z,28.40
2022-07-27T13:14:15.523Z,28.90
2022-07-27T13:16:42.503Z,29.90
2022-07-27T13:19:09.773Z,30.50
2022-07-27T13:21:36.880Z,30.50
2022-07-27T13:24:04.058Z,30.20
2022-07-27T13:26:30.901Z,30.10
2022-07-27T13:28:57.789Z,30.10
2022-07-27T13:31:24.651Z,30.20
2022-07-27T13:33:52.121Z,29.70
2022-07-27T13:36:19.065Z,29.40
2022-07-27T13:38:46.275Z,29.30
2022-07-27T13:41:13.569Z,29.20
2022-07-27T13:43:40.421Z,28.50
2022-07-27T13:46:08.506Z,28.30
2022-07-27T13:48:35.560Z,28.20
2022-07-27T13:51:03.480Z,28.40
2022-07-27T13:53:30.650Z,28.60
2022-07-27T13:55:57.570Z,29.00
2022-07-27T13:58:24.514Z,29.00
2022-07-27T14:00:51.715Z,29.20
2022-07-27T14:03:19.399Z,29.20
2022-07-27T14:05:49.514Z,30.10
2022-07-27T14:08:18.648Z,30.30
2022-07-27T14:10:45.581Z,31.20
2022-07-27T14:13:15.582Z,31.40
2022-07-27T14:15:50.628Z,31.20
2022-07-27T14:18:22.265Z,30.40
2022-07-27T14:20:49.459Z,30.80
2022-07-27T14:23:16.286Z,31.20
2022-07-27T14:25:43.133Z,30.90
2022-07-27T14:28:09.969Z,30.70
2022-07-27T14:30:37.077Z,30.40
2022-07-27T14:33:03.977Z,30.00
2022-07-27T14:35:30.900Z,29.60
2022-07-27T14:38:00.145Z,29.10
2022-07-27T14:40:27.581Z,28.90
2022-07-27T14:42:54.502Z,28.70
2022-07-27T14:45:21.442Z,28.40
2022-07-27T14:47:48.353Z,28.80
2022-07-27T14:50:15.350Z,29.60
2022-07-27T14:52:42.265Z,30.00
2022-07-27T14:55:09.839Z,30.20
2022-07-27T14:57:37.055Z,30.40
2022-07-27T15:00:10.514Z,30.20
2022-07-27T15:02:38.463Z,30.40
2022-07-27T15:05:07.002Z,30.00
2022-07-27T15:07:34.885Z,30.40
2022-07-27T15:10:03.149Z,30.60
2022-07-27T15:12:31.107Z,30.50
2022-07-27T15:15:00.347Z,30.70
2022-07-27T15:17:27.358Z,30.20
2022-07-27T15:19:54.226Z,30.10
2022-07-27T15:22:21.096Z,30.20
2022-07-27T15:24:52.773Z,30.90
2022-07-27T15:27:20.388Z,31.10
2022-07-27T15:29:47.241Z,31.30
2022-07-27T15:32:14.653Z,32.00
2022-07-27T15:34:43.699Z,31.80
2022-07-27T15:37:10.565Z,31.00
2022-07-27T15:39:39.610Z,30.20
2022-07-27T15:42:08.333Z,30.00
2022-07-27T15:44:36.343Z,30.70
2022-07-27T15:47:04.109Z,31.20
2022-07-27T15:49:31.143Z,31.70
2022-07-27T15:51:58.072Z,32.10
2022-07-27T15:54:24.910Z,32.30
2022-07-27T15:56:51.984Z,32.50
2022-07-27T15:59:19.546Z,32.20
2022-07-27T16:01:48.242Z,31.60
2022-07-27T16:04:15.534Z,30.90
2022-07-27T16:06:42.587Z,30.20
2022-07-27T16:09:09.907Z,29.50
2022-07-27T16:11:37.967Z,29.00
2022-07-27T16:14:04.910Z,28.90
2022-07-27T16:16:31.873Z,28.50
2022-07-27T16:19:12.952Z,28.20
2022-07-27T16:21:54.750Z,27.90
2022-07-27T16:24:25.031Z,27.50
2022-07-27T16:26:52.411Z,27.20
2022-07-27T16:29:19.400Z,27.10
2022-07-27T16:31:46.378Z,27.10
2022-07-27T16:34:13.293Z,26.90
2022-07-27T16:36:40.194Z,26.70
2022-07-27T16:39:07.825Z,26.60
2022-07-27T16:41:34.661Z,26.40
2022-07-27T16:44:01.476Z,26.20
2022-07-27T16:46:28.353Z,26.10
2022-07-27T16:48:55.250Z,26.10
2022-07-27T16:51:22.361Z,25.90
2022-07-27T16:53:49.280Z,25.80
2022-07-27T16:56:17.423Z,25.70
2022-07-27T16:58:44.970Z,25.70
2022-07-27T17:01:21.900Z,25.80
2022-07-27T17:03:54.755Z,25.90
2022-07-27T17:06:21.712Z,25.90
2022-07-27T17:08:48.711Z,26.00
2022-07-27T17:11:17.577Z,26.00
2022-07-27T17:13:49.352Z,26.00
2022-07-27T17:16:16.765Z,26.00
2022-07-27T17:18:43.899Z,26.10
2022-07-27T17:21:13.853Z,26.10
2022-07-27T17:23:42.272Z,26.10
2022-07-27T17:26:11.288Z,26.00
2022-07-27T17:28:40.001Z,26.00
2022-07-27T17:31:12.597Z,26.00
2022-07-27T17:33:40.589Z,25.90
2022-07-27T17:36:13.967Z,25.90
2022-07-27T17:38:47.528Z,25.90
2022-07-27T17:41:23.513Z,25.90
2022-07-27T17:43:51.941Z,25.80
2022-07-27T17:46:18.918Z,25.80
2022-07-27T17:48:45.811Z,25.70
2022-07-27T17:51:12.767Z,25.70
2022-07-27T17:53:39.672Z,25.60
2022-07-27T17:56:08.101Z,25.60
2022-07-27T17:58:34.940Z,25.50
2022-07-27T18:01:01.795Z,25.50
2022-07-27T18:03:28.699Z,25.40
2022-07-27T18:05:55.670Z,25.30
2022-07-27T18:08:22.701Z,25.20
2022-07-27T18:10:51.378Z,25.00
2022-07-27T18:13:18.479Z,24.90
2022-07-27T18:15:48.162Z,24.80
2022-07-27T18:18:19.736Z,24.60
2022-07-27T18:20:48.170Z,24.40
2022-07-27T18:23:16.244Z,24.20
2022-07-27T18:25:44.910Z,24.00
2022-07-27T18:28:13.951Z,23.80
2022-07-27T18:30:40.899Z,23.70
2022-07-27T18:33:07.776Z,23.60
2022-07-27T18:35:35.066Z,23.50
2022-07-27T18:38:02.097Z,23.50
2022-07-27T18:40:28.957Z,23.30
2022-07-27T18:42:55.787Z,23.30
2022-07-27T18:45:22.660Z,23.20
2022-07-27T18:48:01.278Z,23.10
2022-07-27T18:50:28.358Z,23.00
2022-07-27T18:52:56.933Z,22.90
2022-07-27T18:55:25.126Z,22.60
2022-07-27T18:57:55.357Z,22.50
2022-07-27T19:00:24.413Z,22.40
2022-07-27T19:02:51.819Z,22.30
2022-07-27T19:05:32.789Z,22.20
2022-07-27T19:08:12.840Z,22.10
2022-07-27T19:10:42.314Z,21.90
2022-07-27T19:13:10.450Z,21.80
2022-07-27T19:15:37.843Z,21.70
2022-07-27T19:18:06.462Z,21.70
2022-07-27T19:20:33.713Z,21.70
2022-07-27T19:23:00.821Z,21.70
2022-07-27T19:25:30.152Z,21.60
2022-07-27T19:27:57.443Z,21.50
2022-07-27T19:30:24.499Z,21.40
2022-07-27T19:32:51.818Z,21.30
2022-07-27T19:35:18.705Z,21.10
2022-07-27T19:37:45.540Z,21.00
2022-07-27T19:40:43.514Z,20.90
2022-07-27T19:42:59.820Z,20.90
2022-07-27T19:45:26.727Z,20.80
2022-07-27T19:47:53.601Z,20.80
2022-07-27T19:50:20.516Z,20.70
2022-07-27T19:52:47.399Z,20.70
2022-07-27T19:55:15.466Z,20.60
2022-07-27T19:57:42.418Z,20.50
2022-07-27T20:00:11.116Z,20.30
2022-07-27T20:02:38.145Z,20.30
2022-07-27T20:05:05.659Z,20.30
2022-07-27T20:07:32.535Z,20.30
2022-07-27T20:09:59.374Z,20.20
2022-07-27T20:12:26.258Z,20.10
2022-07-27T20:14:53.218Z,20.10
2022-07-27T20:17:20.039Z,20.00
2022-07-27T20:19:47.071Z,20.00
2022-07-27T20:22:14.006Z,19.90
2022-07-27T20:24:40.870Z,19.80
2022-07-27T20:27:07.766Z,19.80
2022-07-27T20:29:34.812Z,19.70
2022-07-27T20:32:01.900Z,19.70
2022-07-27T20:34:28.778Z,19.60
2022-07-27T20:36:56.270Z,19.50
2022-07-27T20:39:25.274Z,19.50
2022-07-27T20:41:52.592Z,19.40
2022-07-27T20:44:20.890Z,19.30
2022-07-27T20:46:48.145Z,19.40
2022-07-27T20:49:16.884Z,19.40
2022-07-27T20:51:44.537Z,19.30
2022-07-27T20:54:11.496Z,19.30
2022-07-27T20:56:38.350Z,19.20
2022-07-27T20:59:07.525Z,19.10
2022-07-27T21:01:35.818Z,19.00
2022-07-27T21:04:02.737Z,18.90
2022-07-27T21:06:29.562Z,18.90
2022-07-27T21:08:56.486Z,18.90
2022-07-27T21:11:23.392Z,18.80
2022-07-27T21:13:50.257Z,18.70
2022-07-27T21:16:17.126Z,18.70
2022-07-27T21:18:43.978Z,18.70
2022-07-27T21:21:10.796Z,18.60
2022-07-27T21:23:56.493Z,18.60
2022-07-27T21:26:23.326Z,18.60
2022-07-27T21:28:50.195Z,18.60
2022-07-27T21:31:17.474Z,18.60
2022-07-27T21:33:44.383Z,18.60
2022-07-27T21:36:11.263Z,18.60
2022-07-27T21:38:38.086Z,18.50
2022-07-27T21:41:05.721Z,18.50
2022-07-27T21:43:33.453Z,18.40
2022-07-27T21:46:00.399Z,18.40
2022-07-27T21:48:27.369Z,18.40
2022-07-27T21:50:54.206Z,18.30
2022-07-27T21:53:21.039Z,18.30
2022-07-27T21:55:48.444Z,18.20
2022-07-27T21:58:15.450Z,18.20
2022-07-27T22:00:42.444Z,18.20
2022-07-27T22:03:09.476Z,18.20
2022-07-27T22:05:36.947Z,18.10
2022-07-27T22:08:04.052Z,18.10
2022-07-27T22:10:32.178Z,18.00
2022-07-27T22:12:59.236Z,18.00
2022-07-27T22:15:27.205Z,17.90
2022-07-27T22:17:54.470Z,17.90
2022-07-27T22:20:22.565Z,17.80
2022-07-27T22:22:50.361Z,17.80
2022-07-27T22:25:18.693Z,17.80
2022-07-27T22:27:45.537Z,17.70
2022-07-27T22:30:12.464Z,17.60
2022-07-27T22:32:39.305Z,17.60
2022-07-27T22:35:07.032Z,17.60
2022-07-27T22:37:33.890Z,17.60
2022-07-27T22:40:00.740Z,17.50
2022-07-27T22:42:28.163Z,17.50
2022-07-27T22:44:55.135Z,17.50
2022-07-27T22:47:22.236Z,17.40
2022-07-27T22:49:49.380Z,17.30
2022-07-27T22:52:16.234Z,17.30
2022-07-27T22:54:43.229Z,17.40
2022-07-27T22:57:10.425Z,17.40
2022-07-27T22:59:37.497Z,17.30
2022-07-27T23:02:05.827Z,17.30
2022-07-27T23:04:32.869Z,17.30
2022-07-27T23:07:00.133Z,17.30
2022-07-27T23:09:27.011Z,17.20
2022-07-27T23:11:54.947Z,17.20
2022-07-27T23:14:25.697Z,17.20
2022-07-27T23:16:52.882Z,17.10
2022-07-27T23:19:19.763Z,17.00
2022-07-27T23:21:46.593Z,17.10
2022-07-27T23:24:15.009Z,17.00
2022-07-27T23:26:43.213Z,17.00
2022-07-27T23:29:10.158Z,17.00
2022-07-27T23:31:37.059Z,17.00
2022-07-27T23:34:04.069Z,17.00
2022-07-27T23:36:30.958Z,17.00
2022-07-27T23:38:57.929Z,17.00
2022-07-27T23:41:25.065Z,17.00
2022-07-27T23:43:51.926Z,17.00
2022-07-27T23:46:19.044Z,17.00
2022-07-27T23:48:45.980Z,17.00
2022-07-27T23:51:20.202Z,17.00
2022-07-27T23:53:47.749Z,16.90
2022-07-27T23:56:15.043Z,17.00
2022-07-27T23:58:41.946Z,16.90
